Time;durP1;ratioP1;P1;durP2;ratioP2;P2;SDS_P1;SDS_P2;PMS_P1;PMS_P2;Temp;Humidity;BMP_temperature;BMP_pressure;BME280_temperature;BME280_humidity;BME280_pressure;Samples;Min_cycle;Max_cycle;Signal;HPM_P1;HPM_P2
2023/07/16 00:00:50;;;;;;;11.93;5.03;;;;;;;20.77;46.84;100733.78;5097323;28;20518;-66
2023/07/16 00:03:17;;;;;;;12.15;5.00;;;;;;;20.73;46.57;100741.34;5093131;28;20052;-62
2023/07/16 00:05:45;;;;;;;11.85;5.10;;;;;;;20.65;46.54;100737.66;5082350;28;20529;-62
2023/07/16 00:08:12;;;;;;;11.65;5.15;;;;;;;20.47;47.36;100733.03;5114612;28;20055;-63
2023/07/16 00:10:39;;;;;;;13.60;4.93;;;;;;;20.61;47.20;100733.19;5109327;28;20052;-68
2023/07/16 00:13:07;;;;;;;15.73;5.57;;;;;;;20.36;47.68;100724.47;5096905;28;20047;-65
2023/07/16 00:15:34;;;;;;;11.00;4.90;;;;;;;20.50;47.89;100733.06;5091568;28;20062;-66
2023/07/16 00:18:02;;;;;;;16.88;5.32;;;;;;;20.28;48.45;100733.13;5094713;28;20070;-67
2023/07/16 00:20:29;;;;;;;13.27;5.03;;;;;;;20.28;48.83;100730.31;5105504;28;20052;-66
2023/07/16 00:22:57;;;;;;;14.23;5.15;;;;;;;20.28;49.09;100739.53;5114801;28;20058;-66
2023/07/16 00:25:24;;;;;;;16.00;5.55;;;;;;;20.27;49.30;100728.72;5107818;28;20410;-66
2023/07/16 00:27:51;;;;;;;15.52;5.43;;;;;;;20.40;48.93;100736.50;5096976;28;20051;-66
2023/07/16 00:30:19;;;;;;;15.75;5.22;;;;;;;20.33;49.26;100738.41;5115070;28;20446;-65
2023/07/16 00:32:48;;;;;;;16.10;5.50;;;;;;;20.34;49.27;100740.03;5113173;28;20052;-66
2023/07/16 00:35:15;;;;;;;15.52;6.03;;;;;;;20.15;50.38;100738.91;5114738;28;20054;-66
2023/07/16 00:37:44;;;;;;;11.65;5.55;;;;;;;20.33;49.51;100744.00;5113733;28;20048;-67
2023/07/16 00:40:12;;;;;;;18.48;6.03;;;;;;;20.14;50.62;100747.69;5084506;28;20060;-67
2023/07/16 00:42:39;;;;;;;14.55;5.82;;;;;;;20.17;50.60;100741.38;5095442;28;20040;-67
2023/07/16 00:45:12;;;;;;;16.40;5.32;;;;;;;20.26;50.43;100743.91;5096701;28;20499;-67
2023/07/16 00:47:41;;;;;;;16.08;6.05;;;;;;;19.97;50.95;100737.84;5079317;28;20048;-67
2023/07/16 00:50:11;;;;;;;18.63;6.18;;;;;;;19.87;51.49;100748.88;5114667;28;20059;-66
2023/07/16 00:52:39;;;;;;;16.00;5.43;;;;;;;19.79;52.02;100756.31;5114755;28;20054;-65
2023/07/16 00:55:07;;;;;;;16.80;5.97;;;;;;;19.91;51.79;100744.94;5113853;28;20043;-62
2023/07/16 00:57:34;;;;;;;18.13;5.50;;;;;;;19.90;51.58;100748.13;5096784;28;20051;-62
2023/07/16 01:00:03;;;;;;;20.27;6.30;;;;;;;19.69;52.28;100745.78;5107163;28;20044;-67
2023/07/16 01:02:30;;;;;;;17.83;6.10;;;;;;;19.81;52.52;100748.38;5104603;28;20058;-67
2023/07/16 01:04:58;;;;;;;16.98;6.15;;;;;;;19.71;52.75;100751.00;5079819;28;20063;-62
2023/07/16 01:07:27;;;;;;;20.00;6.78;;;;;;;19.53;53.31;100755.47;5114738;28;20056;-67
2023/07/16 01:09:55;;;;;;;17.77;6.57;;;;;;;19.47;53.78;100749.41;5095573;28;20055;-66
2023/07/16 01:12:23;;;;;;;18.23;6.55;;;;;;;19.35;53.91;100752.38;5096223;28;20050;-66
2023/07/16 01:14:51;;;;;;;18.00;6.00;;;;;;;19.50;53.76;100761.81;5079442;28;20059;-66
2023/07/16 01:17:19;;;;;;;18.33;6.90;;;;;;;19.35;54.16;100760.75;5079431;28;20070;-66
2023/07/16 01:19:46;;;;;;;14.20;5.85;;;;;;;19.46;54.15;100760.94;5114355;28;20048;-66
2023/07/16 01:22:32;;;;;;;16.50;5.80;;;;;;;19.61;53.44;100760.84;5095960;28;20059;-67
2023/07/16 01:25:26;;;;;;;17.48;6.53;;;;;;;19.50;54.16;100776.59;5114431;28;20818;-63
2023/07/16 01:28:09;;;;;;;17.17;5.97;;;;;;;19.42;54.51;100768.47;5048949;28;20059;-61
2023/07/16 01:30:38;;;;;;;18.67;6.25;;;;;;;19.49;54.51;100768.59;5079333;28;20059;-62
2023/07/16 01:33:07;;;;;;;18.88;6.60;;;;;;;19.45;54.53;100765.72;5091709;28;20036;-61
2023/07/16 01:35:36;;;;;;;19.38;6.30;;;;;;;19.33;54.93;100777.06;5085344;28;20056;-61
2023/07/16 01:38:03;;;;;;;15.32;6.55;;;;;;;19.24;54.96;100784.84;5070705;28;20044;-61
2023/07/16 01:40:30;;;;;;;19.15;6.53;;;;;;;19.38;55.15;100775.94;5108385;28;20051;-61
2023/07/16 01:42:58;;;;;;;17.60;6.90;;;;;;;19.32;55.34;100785.84;5095716;28;20040;-63
2023/07/16 01:45:26;;;;;;;18.38;7.07;;;;;;;19.39;55.12;100788.72;5095528;28;20059;-65
2023/07/16 01:48:12;;;;;;;22.77;7.53;;;;;;;19.42;54.94;100790.81;5114104;28;20054;-64
2023/07/16 01:50:39;;;;;;;16.98;7.30;;;;;;;19.17;55.96;100786.69;5095035;28;20051;-62
2023/07/16 01:53:06;;;;;;;18.52;6.45;;;;;;;19.15;55.76;100792.66;5105135;28;20055;-62
2023/07/16 01:55:33;;;;;;;19.23;6.68;;;;;;;19.13;56.14;100791.38;5113768;28;20055;-65
2023/07/16 01:58:01;;;;;;;14.40;6.90;;;;;;;19.11;56.20;100799.34;5095019;28;20051;-61
2023/07/16 02:00:28;;;;;;;16.55;6.90;;;;;;;19.16;56.55;100794.25;5090890;28;20048;-63
2023/07/16 02:02:56;;;;;;;21.10;6.90;;;;;;;19.07;56.78;100802.06;5107853;28;20056;-62
2023/07/16 02:05:24;;;;;;;22.25;7.00;;;;;;;19.04;56.89;100798.00;5111353;28;20051;-62
2023/07/16 02:07:51;;;;;;;16.48;6.53;;;;;;;18.92;57.18;100798.16;5093499;28;20057;-63
2023/07/16 02:10:19;;;;;;;17.02;6.68;;;;;;;18.97;57.77;100800.66;5112318;28;20055;-62
2023/07/16 02:12:47;;;;;;;24.88;7.57;;;;;;;19.09;56.66;100802.47;5110373;28;20355;-63
2023/07/16 02:15:15;;;;;;;18.95;7.78;;;;;;;19.01;57.23;100803.53;5111983;28;20054;-62
2023/07/16 02:17:42;;;;;;;16.13;6.55;;;;;;;18.99;57.58;100806.69;5093145;28;20055;-67
2023/07/16 02:20:10;;;;;;;16.92;6.55;;;;;;;19.07;57.25;100810.44;5073574;28;20455;-66
2023/07/16 02:22:39;;;;;;;16.70;6.90;;;;;;;19.00;57.57;100813.09;5107568;28;20509;-61
2023/07/16 02:25:07;;;;;;;17.80;6.38;;;;;;;19.01;57.43;100809.94;5091262;28;20617;-62
2023/07/16 02:27:34;;;;;;;17.90;6.72;;;;;;;18.85;57.79;100808.38;5103701;28;20051;-67
2023/07/16 02:30:05;;;;;;;19.30;6.83;;;;;;;18.83;58.08;100821.88;5105742;28;20067;-67
2023/07/16 02:32:34;;;;;;;18.95;7.30;;;;;;;18.80;58.28;100819.81;5095631;28;20350;-67
2023/07/16 02:35:02;;;;;;;19.13;7.10;;;;;;;18.78;58.42;100830.53;5094654;28;20047;-68
2023/07/16 02:37:30;;;;;;;13.60;5.72;;;;;;;18.78;58.41;100820.19;5124133;28;20063;-68
2023/07/16 02:39:58;;;;;;;13.95;6.05;;;;;;;18.68;58.76;100826.34;5104484;28;20048;-67
2023/07/16 02:42:26;;;;;;;21.98;6.93;;;;;;;18.73;58.70;100825.25;5116176;28;20055;-62
2023/07/16 02:44:53;;;;;;;19.50;7.13;;;;;;;18.70;58.68;100826.81;5097085;28;20047;-62
2023/07/16 02:47:20;;;;;;;16.73;6.88;;;;;;;18.69;58.59;100825.16;5104341;28;20059;-61
2023/07/16 02:49:52;;;;;;;18.92;6.38;;;;;;;18.65;59.13;100821.53;5116962;28;20047;-63
2023/07/16 02:52:19;;;;;;;10.90;5.97;;;;;;;18.59;59.05;100819.34;5078487;28;20059;-62
2023/07/16 02:54:46;;;;;;;18.70;6.57;;;;;;;18.56;59.50;100817.31;5098323;28;20044;-63
2023/07/16 02:57:14;;;;;;;17.40;6.78;;;;;;;18.69;59.22;100833.53;5117257;28;20662;-62
2023/07/16 02:59:41;;;;;;;14.88;5.95;;;;;;;18.59;59.07;100830.50;5116942;28;20043;-61
2023/07/16 03:02:08;;;;;;;20.08;6.88;;;;;;;18.64;59.44;100825.47;5117327;28;20394;-62
2023/07/16 03:04:36;;;;;;;13.10;5.80;;;;;;;18.55;59.62;100840.81;5097274;28;20506;-62
2023/07/16 03:07:03;;;;;;;17.90;6.18;;;;;;;18.60;59.78;100832.94;5096534;28;20063;-62
2023/07/16 03:09:31;;;;;;;16.08;6.38;;;;;;;18.32;60.69;100840.66;5096917;28;20056;-65
2023/07/16 03:11:58;;;;;;;15.60;6.22;;;;;;;18.32;60.91;100835.06;5096576;28;20055;-66
2023/07/16 03:14:25;;;;;;;13.95;5.97;;;;;;;18.25;61.35;100840.47;5091151;28;20059;-66
2023/07/16 03:16:53;;;;;;;20.27;6.25;;;;;;;18.30;60.70;100842.97;5116917;28;20050;-66
2023/07/16 03:19:20;;;;;;;15.88;6.80;;;;;;;18.19;61.59;100839.13;5115539;28;20406;-66
2023/07/16 03:21:49;;;;;;;17.65;6.65;;;;;;;18.18;62.49;100840.28;5116796;28;20044;-66
2023/07/16 03:24:17;;;;;;;16.38;6.25;;;;;;;18.41;60.92;100848.84;5115344;28;20035;-67
2023/07/16 03:26:44;;;;;;;17.52;6.88;;;;;;;18.34;61.48;100843.06;5116938;28;20494;-66
2023/07/16 03:29:12;;;;;;;19.25;6.78;;;;;;;18.26;61.74;100838.47;5115366;28;20047;-65
2023/07/16 03:31:39;;;;;;;16.05;6.45;;;;;;;18.18;62.05;100839.47;5114913;28;20062;-66
2023/07/16 03:34:07;;;;;;;22.02;7.18;;;;;;;18.22;62.01;100843.16;5083837;28;20472;-61
2023/07/16 03:36:35;;;;;;;20.35;7.10;;;;;;;18.26;61.89;100836.50;5093055;27;20050;-62
2023/07/16 03:39:03;;;;;;;19.77;7.65;;;;;;;18.07;62.91;100842.00;5132843;27;20430;-62
2023/07/16 03:41:33;;;;;;;17.27;6.70;;;;;;;18.17;62.82;100837.84;5086991;28;20058;-63
2023/07/16 03:44:01;;;;;;;19.88;6.68;;;;;;;18.16;62.73;100850.19;5106874;28;20043;-62
2023/07/16 03:46:32;;;;;;;18.92;6.55;;;;;;;18.30;62.60;100847.75;5087928;28;20052;-62
2023/07/16 03:48:59;;;;;;;17.92;7.22;;;;;;;18.26;62.76;100856.03;5077641;28;20048;-62
2023/07/16 03:51:26;;;;;;;23.35;7.60;;;;;;;18.10;62.70;100854.44;5088011;28;20055;-62
2023/07/16 03:53:54;;;;;;;17.10;7.32;;;;;;;18.13;62.79;100859.28;5097577;28;20055;-61
2023/07/16 03:56:21;;;;;;;19.10;7.53;;;;;;;17.93;63.76;100858.38;5110938;28;20055;-61
2023/07/16 03:58:49;;;;;;;17.58;7.75;;;;;;;18.05;63.53;100855.50;5096429;28;20089;-62
2023/07/16 04:01:17;;;;;;;20.75;6.72;;;;;;;18.06;63.57;100859.09;5097129;28;20047;-63
2023/07/16 04:03:44;;;;;;;19.27;7.13;;;;;;;18.13;63.29;100860.09;5098229;28;20048;-63
2023/07/16 04:06:12;;;;;;;21.58;7.68;;;;;;;18.19;63.25;100860.59;5097964;28;20048;-61
2023/07/16 04:08:39;;;;;;;19.70;7.25;;;;;;;18.11;63.30;100859.63;5095957;28;20055;-66
2023/07/16 04:11:07;;;;;;;19.35;7.20;;;;;;;18.22;63.39;100865.47;5115859;28;20039;-67
2023/07/16 04:13:34;;;;;;;21.38;7.70;;;;;;;18.18;63.25;100868.19;5088912;28;20050;-66
2023/07/16 04:16:02;;;;;;;21.00;7.63;;;;;;;18.04;63.76;100869.78;5115714;28;20055;-67
2023/07/16 04:18:29;;;;;;;16.05;7.20;;;;;;;17.97;63.87;100864.84;5105469;28;20503;-67
2023/07/16 04:20:56;;;;;;;18.25;7.05;;;;;;;17.96;64.41;100869.59;5094799;28;20051;-66
2023/07/16 04:23:25;;;;;;;18.58;7.55;;;;;;;17.87;64.87;100871.75;5080139;28;20059;-67
2023/07/16 04:25:53;;;;;;;18.58;7.20;;;;;;;17.99;64.69;100882.03;5094821;28;20051;-66
2023/07/16 04:28:20;;;;;;;20.80;7.55;;;;;;;17.85;64.93;100882.44;5094745;28;20391;-66
2023/07/16 04:30:48;;;;;;;23.83;8.02;;;;;;;17.88;65.13;100883.72;5092761;28;20549;-66
2023/07/16 04:33:15;;;;;;;22.42;7.38;;;;;;;18.12;64.76;100883.53;5095209;28;20048;-66
2023/07/16 04:35:43;;;;;;;20.20;6.95;;;;;;;18.14;64.59;100889.56;5076925;28;20123;-66
2023/07/16 04:38:11;;;;;;;23.77;7.47;;;;;;;17.90;65.55;100892.53;5113751;27;20411;-61
2023/07/16 04:40:39;;;;;;;18.27;7.07;;;;;;;18.04;65.42;100890.13;5095733;28;20060;-62
2023/07/16 04:43:06;;;;;;;29.25;7.78;;;;;;;18.16;65.03;100894.78;5080299;28;20047;-61
2023/07/16 04:45:34;;;;;;;20.92;7.57;;;;;;;18.23;64.06;100901.38;5114992;28;20047;-62
2023/07/16 04:48:01;;;;;;;16.13;7.15;;;;;;;18.22;64.21;100901.72;5096766;28;20062;-62
2023/07/16 04:50:28;;;;;;;20.58;7.35;;;;;;;18.19;64.40;100908.81;5114713;28;20047;-65
2023/07/16 04:52:56;;;;;;;23.17;7.75;;;;;;;18.26;64.49;100906.22;5096635;28;20060;-66
2023/07/16 04:55:23;;;;;;;17.80;7.57;;;;;;;18.33;64.22;100911.16;5114622;28;20047;-67
2023/07/16 04:57:53;;;;;;;22.15;6.95;;;;;;;18.27;64.39;100907.03;5096583;28;20043;-66
2023/07/16 05:00:21;;;;;;;16.35;7.07;;;;;;;18.27;64.65;100920.97;5114611;28;20036;-67
2023/07/16 05:02:48;;;;;;;17.13;7.97;;;;;;;18.23;64.54;100922.84;5094294;28;20055;-65
2023/07/16 05:05:15;;;;;;;16.48;7.10;;;;;;;18.17;65.11;100921.50;5104567;28;20490;-66
2023/07/16 05:07:42;;;;;;;14.93;6.97;;;;;;;18.14;65.32;100925.81;5114319;28;20142;-67
2023/07/16 05:10:11;;;;;;;21.85;7.32;;;;;;;18.28;64.82;100923.41;5114492;28;20051;-66
2023/07/16 05:12:39;;;;;;;20.40;7.47;;;;;;;18.30;64.99;100925.81;5095970;28;20040;-61
2023/07/16 05:15:07;;;;;;;16.48;6.72;;;;;;;18.37;64.78;100924.03;5111222;28;20070;-63
2023/07/16 05:17:34;;;;;;;20.63;7.25;;;;;;;18.34;64.88;100921.16;5094812;28;20056;-62
2023/07/16 05:20:03;;;;;;;23.02;7.78;;;;;;;18.26;65.28;100927.69;5093149;28;20048;-63
2023/07/16 05:22:31;;;;;;;19.15;6.75;;;;;;;18.41;64.99;100938.09;5094045;28;20557;-61
2023/07/16 05:24:59;;;;;;;17.30;6.72;;;;;;;18.52;64.84;100936.34;5041975;28;20052;-62
2023/07/16 05:27:27;;;;;;;22.10;7.85;;;;;;;18.39;65.14;100926.44;5059007;28;20159;-68
2023/07/16 05:29:54;;;;;;;22.65;7.00;;;;;;;18.46;65.19;100927.44;5074492;28;20048;-68
2023/07/16 05:32:22;;;;;;;22.38;7.90;;;;;;;18.46;65.23;100937.81;5101632;28;20070;-67
2023/07/16 05:34:50;;;;;;;15.93;7.22;;;;;;;18.42;65.76;100926.56;5114152;28;20047;-68
2023/07/16 05:37:17;;;;;;;18.08;8.27;;;;;;;18.59;65.23;100933.75;5112806;28;20062;-68
2023/07/16 05:39:45;;;;;;;18.55;7.30;;;;;;;18.64;65.27;100933.47;5112973;28;20058;-67
2023/07/16 05:42:12;;;;;;;19.15;7.40;;;;;;;18.53;65.54;100936.00;5105961;28;20059;-67
2023/07/16 05:44:40;;;;;;;17.48;7.43;;;;;;;18.60;65.14;100938.16;5110206;28;20422;-66
2023/07/16 05:47:08;;;;;;;21.48;7.43;;;;;;;18.84;64.88;100944.34;5113874;28;20056;-66
2023/07/16 05:49:36;;;;;;;20.52;7.88;;;;;;;18.63;65.24;100948.59;5095507;28;20056;-67
2023/07/16 05:52:04;;;;;;;16.92;7.00;;;;;;;18.88;64.32;100950.00;5095564;28;20047;-67
2023/07/16 05:54:31;;;;;;;20.58;8.60;;;;;;;18.81;64.55;100947.84;5109824;28;20051;-62
2023/07/16 05:57:00;;;;;;;24.95;8.10;;;;;;;18.91;64.81;100952.88;5092541;28;20050;-62
2023/07/16 05:59:27;;;;;;;22.63;8.82;;;;;;;18.96;64.49;100954.56;5010948;28;20349;-67
2023/07/16 06:01:57;;;;;;;21.30;7.68;;;;;;;19.02;64.13;100958.72;5055866;28;20044;-62
2023/07/16 06:04:25;;;;;;;21.45;8.43;;;;;;;19.05;64.28;100952.41;5113486;28;20056;-67
2023/07/16 06:06:52;;;;;;;21.33;7.95;;;;;;;19.04;64.52;100957.16;5112954;28;20094;-63
2023/07/16 06:09:20;;;;;;;18.73;7.68;;;;;;;19.01;64.70;100957.06;5112884;28;20445;-62
2023/07/16 06:11:47;;;;;;;21.83;7.70;;;;;;;19.05;64.40;100958.81;5129243;27;20054;-62
2023/07/16 06:14:15;;;;;;;20.05;7.40;;;;;;;19.08;64.27;100963.66;5103234;28;20051;-62
2023/07/16 06:16:43;;;;;;;25.92;8.73;;;;;;;19.37;64.03;100972.69;5112190;28;20051;-62
2023/07/16 06:19:10;;;;;;;22.73;8.25;;;;;;;19.29;63.21;100974.47;5107279;28;20062;-65
2023/07/16 06:21:38;;;;;;;22.00;7.93;;;;;;;19.32;63.47;100972.97;5077563;28;20173;-66
2023/07/16 06:24:06;;;;;;;27.92;8.77;;;;;;;19.09;64.17;100967.22;5102764;28;20054;-66
2023/07/16 06:26:33;;;;;;;24.25;8.20;;;;;;;19.36;63.51;100968.25;5112181;28;20035;-66
2023/07/16 06:29:00;;;;;;;21.95;8.13;;;;;;;19.62;63.36;100971.22;5077469;28;20047;-62
2023/07/16 06:31:28;;;;;;;22.98;8.43;;;;;;;19.58;62.87;100973.16;5094858;28;20043;-62
2023/07/16 06:33:55;;;;;;;24.65;8.23;;;;;;;19.65;62.21;100968.50;5094624;28;20052;-62
2023/07/16 06:36:22;;;;;;;21.95;8.65;;;;;;;19.82;61.66;100970.81;5114440;28;20062;-62
2023/07/16 06:38:50;;;;;;;19.35;8.15;;;;;;;19.57;62.44;100977.91;5132892;28;20062;-61
2023/07/16 06:41:18;;;;;;;24.30;8.50;;;;;;;19.60;62.68;100970.75;5113347;28;20047;-66
2023/07/16 06:43:45;;;;;;;20.08;7.88;;;;;;;19.73;62.24;100975.03;5113306;28;20047;-66
2023/07/16 06:46:13;;;;;;;19.38;7.93;;;;;;;20.04;61.23;100977.66;5113315;28;20501;-66
2023/07/16 06:48:40;;;;;;;25.20;9.40;;;;;;;19.84;61.32;100976.84;5095313;28;20415;-66
2023/07/16 06:51:08;;;;;;;22.63;8.20;;;;;;;19.75;61.77;100979.06;5112917;28;20057;-65
2023/07/16 06:53:35;;;;;;;18.92;7.80;;;;;;;19.70;62.02;100993.34;5113483;28;20523;-66
2023/07/16 06:56:03;;;;;;;16.83;7.55;;;;;;;19.93;61.17;100987.81;5111553;28;20625;-65
2023/07/16 06:58:33;;;;;;;25.20;8.85;;;;;;;19.86;62.02;100980.09;5113312;28;20051;-67
2023/07/16 07:01:00;;;;;;;27.25;8.52;;;;;;;19.98;61.43;100991.13;5113260;28;20062;-66
2023/07/16 07:03:28;;;;;;;18.90;7.63;;;;;;;20.17;60.68;100977.13;5113364;28;20058;-66
2023/07/16 07:05:55;;;;;;;21.58;8.05;;;;;;;20.19;60.81;100981.56;5112765;28;20047;-66
2023/07/16 07:08:23;;;;;;;19.17;7.47;;;;;;;20.13;60.79;100989.41;5112660;28;20064;-66
2023/07/16 07:10:50;;;;;;;22.65;7.78;;;;;;;20.28;60.95;100990.50;5113128;28;20046;-66
2023/07/16 07:13:17;;;;;;;26.13;7.90;;;;;;;20.09;61.57;100985.72;5111240;28;22056;-67
2023/07/16 07:15:45;;;;;;;16.52;7.80;;;;;;;20.06;61.85;100981.72;5094567;28;20048;-66
2023/07/16 07:18:12;;;;;;;20.75;7.65;;;;;;;20.14;60.95;100991.84;5094874;28;20055;-67
2023/07/16 07:20:40;;;;;;;26.17;8.40;;;;;;;20.38;60.93;100981.50;5093973;28;20059;-68
2023/07/16 07:23:08;;;;;;;22.45;7.68;;;;;;;20.48;60.00;100983.69;5103639;28;20048;-65
2023/07/16 07:25:35;;;;;;;20.58;7.38;;;;;;;20.42;60.34;100987.97;5061021;28;20047;-67
2023/07/16 07:28:03;;;;;;;22.70;7.95;;;;;;;20.59;60.23;100985.47;5080247;28;20043;-66
2023/07/16 07:30:30;;;;;;;22.67;9.02;;;;;;;20.77;59.46;100986.59;5062128;28;20048;-66
2023/07/16 07:32:58;;;;;;;26.02;7.43;;;;;;;20.83;58.68;100996.28;5094529;28;20048;-66
2023/07/16 07:35:25;;;;;;;27.02;7.88;;;;;;;20.77;58.67;100978.19;5098405;28;20510;-66
2023/07/16 07:37:52;;;;;;;22.48;7.35;;;;;;;21.03;57.99;100986.63;5130446;27;20561;-68
2023/07/16 07:40:20;;;;;;;31.15;8.55;;;;;;;21.37;57.07;100986.72;5123108;27;20383;-66
2023/07/16 07:42:47;;;;;;;20.92;7.65;;;;;;;21.55;55.96;100984.97;5116511;28;20522;-65
2023/07/16 07:45:14;;;;;;;22.83;7.47;;;;;;;21.72;54.96;100971.16;5097201;28;20058;-66
2023/07/16 07:47:42;;;;;;;25.08;7.50;;;;;;;21.83;54.27;100969.31;5116018;28;20047;-65
2023/07/16 07:50:09;;;;;;;23.90;7.60;;;;;;;21.88;54.00;100977.38;5116400;28;20066;-66
2023/07/16 07:52:37;;;;;;;20.05;7.25;;;;;;;21.80;53.98;100981.28;5096799;28;20482;-66
2023/07/16 07:55:04;;;;;;;17.42;6.63;;;;;;;21.97;52.92;100979.88;5116167;28;20059;-65
2023/07/16 07:57:32;;;;;;;16.40;6.97;;;;;;;21.90;53.09;100986.22;5116362;28;20117;-65
2023/07/16 07:59:59;;;;;;;22.65;7.07;;;;;;;22.03;52.39;100990.38;5114880;28;20060;-66
2023/07/16 08:02:27;;;;;;;20.60;6.70;;;;;;;21.95;52.37;100985.88;5105941;28;20052;-66
2023/07/16 08:04:54;;;;;;;17.90;6.75;;;;;;;22.15;51.75;100990.13;5113672;28;20059;-67
2023/07/16 08:07:22;;;;;;;19.73;7.10;;;;;;;22.45;51.06;100989.19;5076638;28;20514;-66
2023/07/16 08:09:49;;;;;;;22.33;7.43;;;;;;;22.37;50.48;100984.72;5105966;27;20051;-65
2023/07/16 08:12:17;;;;;;;21.73;7.00;;;;;;;22.08;51.26;100980.81;5115153;28;20043;-66
2023/07/16 08:14:44;;;;;;;22.45;7.70;;;;;;;22.17;51.39;100984.94;5115238;28;20064;-66
2023/07/16 08:17:12;;;;;;;17.63;6.40;;;;;;;22.49;50.33;100990.03;5114254;27;20047;-66
2023/07/16 08:19:39;;;;;;;18.25;7.65;;;;;;;22.23;50.38;100983.38;5114370;28;20052;-66
2023/07/16 08:22:06;;;;;;;17.88;6.88;;;;;;;22.16;50.57;100985.28;5113686;28;20044;-66
2023/07/16 08:24:34;;;;;;;21.20;6.75;;;;;;;22.31;50.25;100987.06;5114347;28;20059;-66
2023/07/16 08:27:01;;;;;;;19.08;6.95;;;;;;;22.24;50.23;100995.41;5113993;28;20055;-69
2023/07/16 08:29:28;;;;;;;28.25;11.18;;;;;;;22.41;50.03;100989.16;5115296;28;20048;-66
2023/07/16 08:31:56;;;;;;;25.15;7.72;;;;;;;22.13;50.37;100991.69;5115368;28;20047;-67
2023/07/16 08:34:23;;;;;;;17.40;6.57;;;;;;;21.94;51.44;100994.66;5115489;28;20062;-66
2023/07/16 08:36:50;;;;;;;17.83;7.35;;;;;;;22.38;49.89;100986.31;5095328;28;20411;-66
2023/07/16 08:39:19;;;;;;;20.13;7.28;;;;;;;22.34;49.42;100989.09;5114285;28;20070;-66
2023/07/16 08:41:48;;;;;;;17.98;6.93;;;;;;;22.42;48.84;100995.59;5115158;28;20055;-67
2023/07/16 08:44:15;;;;;;;21.35;7.13;;;;;;;22.60;48.55;100986.16;5100427;27;20055;-68
2023/07/16 08:46:43;;;;;;;18.10;6.70;;;;;;;22.54;47.71;100992.50;5093262;28;20052;-67
2023/07/16 08:49:11;;;;;;;16.67;6.45;;;;;;;22.73;47.43;100998.72;5076780;28;20418;-66
2023/07/16 08:51:39;;;;;;;20.60;6.82;;;;;;;22.79;47.16;100994.34;5089921;28;20568;-66
2023/07/16 08:54:06;;;;;;;16.55;5.95;;;;;;;22.75;47.34;100996.31;5114720;28;20153;-66
2023/07/16 08:56:33;;;;;;;21.83;6.85;;;;;;;22.73;47.21;101001.53;5114796;28;20051;-66
2023/07/16 08:59:01;;;;;;;16.20;6.00;;;;;;;22.81;49.02;100996.75;5094382;28;20062;-67
2023/07/16 09:01:28;;;;;;;14.15;6.00;;;;;;;22.89;47.49;101004.06;5110745;28;20510;-68
2023/07/16 09:03:56;;;;;;;18.15;5.97;;;;;;;22.90;47.18;101012.09;5112338;28;20047;-67
2023/07/16 09:06:24;;;;;;;15.07;5.95;;;;;;;23.01;46.62;100998.13;5072443;28;20585;-70
2023/07/16 09:08:52;;;;;;;22.10;5.93;;;;;;;23.07;46.45;101005.78;5091189;28;20521;-68
2023/07/16 09:11:21;;;;;;;17.98;6.40;;;;;;;22.94;46.88;101006.50;5109882;28;20118;-67
2023/07/16 09:13:49;;;;;;;17.20;6.03;;;;;;;22.98;47.00;101004.53;5108343;28;20525;-67
2023/07/16 09:16:21;;;;;;;17.17;6.32;;;;;;;22.91;47.25;101004.47;5088301;28;20510;-68
2023/07/16 09:18:48;;;;;;;16.85;6.32;;;;;;;23.06;47.12;101004.19;5100657;28;20062;-69
2023/07/16 09:21:16;;;;;;;20.17;5.95;;;;;;;23.05;47.71;101004.56;5084493;28;20055;-68
2023/07/16 09:23:45;;;;;;;;;;;;;;;23.30;46.10;100995.16;5092077;28;20054;-70
2023/07/16 09:26:13;;;;;;;16.30;5.75;;;;;;;23.27;46.24;100997.91;5111970;28;19919;-71
2023/07/16 09:28:40;;;;;;;17.73;5.70;;;;;;;23.67;44.62;100999.75;5110072;28;20050;-69
2023/07/16 09:31:08;;;;;;;16.63;5.53;;;;;;;23.62;45.33;101000.13;5086227;28;20587;-67
2023/07/16 09:33:35;;;;;;;16.60;7.03;;;;;;;23.61;44.90;100996.50;5108501;28;20055;-68
2023/07/16 09:36:03;;;;;;;15.02;5.32;;;;;;;23.43;45.11;100998.44;5107494;28;20048;-69
2023/07/16 09:38:32;;;;;;;20.35;6.28;;;;;;;23.36;45.12;100999.19;5084017;28;20047;-68
2023/07/16 09:40:59;;;;;;;22.70;6.20;;;;;;;23.38;45.31;101001.59;5090276;28;20059;-68
2023/07/16 09:43:26;;;;;;;14.40;5.35;;;;;;;23.26;45.54;100999.91;5088000;28;20051;-68
2023/07/16 09:45:54;;;;;;;18.33;5.95;;;;;;;23.41;45.39;100998.03;5105798;28;20063;-68
2023/07/16 09:48:21;;;;;;;18.70;6.15;;;;;;;23.47;45.20;101001.28;5084896;28;20043;-68
2023/07/16 09:50:52;;;;;;;18.63;5.68;;;;;;;23.26;44.70;101002.72;5106028;28;20380;-68
2023/07/16 09:53:20;;;;;;;14.10;5.30;;;;;;;23.11;45.70;101008.63;5089353;28;20048;-68
2023/07/16 09:55:49;;;;;;;17.88;6.60;;;;;;;23.34;45.11;101000.78;5091000;28;20407;-68
2023/07/16 09:58:19;;;;;;;17.45;6.00;;;;;;;23.56;44.03;100984.81;5072289;28;20046;-68
2023/07/16 10:00:47;;;;;;;19.20;6.50;;;;;;;23.81;43.64;100999.81;5102643;28;20055;-68
2023/07/16 10:03:17;;;;;;;17.88;6.13;;;;;;;23.90;44.13;101000.25;5101327;28;20051;-67
2023/07/16 10:05:44;;;;;;;11.97;5.43;;;;;;;23.84;44.29;101005.44;5107474;28;20047;-66
2023/07/16 10:08:17;;;;;;;19.27;6.03;;;;;;;24.10;43.02;100998.72;5102313;28;20051;-67
2023/07/16 10:10:56;;;;;;;18.25;5.60;;;;;;;24.06;42.73;100990.25;5104719;28;20052;-69
2023/07/16 10:13:24;;;;;;;13.38;5.95;;;;;;;23.67;43.23;100989.31;5105372;28;20054;-67
2023/07/16 10:15:53;;;;;;;14.60;5.28;;;;;;;23.83;43.02;100991.78;5106478;28;20044;-67
2023/07/16 10:18:27;;;;;;;16.65;6.10;;;;;;;23.98;43.27;100984.97;5103339;28;20036;-67
2023/07/16 10:21:00;;;;;;;15.93;5.65;;;;;;;23.80;43.54;100986.97;5102656;28;20572;-66
2023/07/16 10:23:37;;;;;;;10.88;5.25;;;;;;;23.73;42.59;100978.47;5104793;28;20039;-71
2023/07/16 10:26:07;;;;;;;20.05;6.47;;;;;;;23.58;42.90;100976.78;5083795;28;20055;-73
2023/07/16 10:28:36;;;;;;;20.50;6.25;;;;;;;23.77;43.20;100976.47;5102879;28;21391;-74
2023/07/16 10:31:05;;;;;;;16.35;5.78;;;;;;;24.14;43.03;100983.47;5101038;28;20059;-72
2023/07/16 10:33:32;;;;;;;15.48;6.18;;;;;;;24.11;42.25;100972.97;5084183;28;20066;-71
2023/07/16 10:36:00;;;;;;;14.70;6.00;;;;;;;23.94;41.72;100970.91;5087072;28;20043;-69
2023/07/16 10:38:27;;;;;;;30.38;6.40;;;;;;;24.19;41.60;100976.63;5102555;28;20050;-71
2023/07/16 10:41:09;;;;;;;16.55;5.40;;;;;;;24.23;40.79;100972.59;5069582;28;20497;-70
2023/07/16 10:43:42;;;;;;;14.85;4.85;;;;;;;24.30;39.10;100969.81;5085136;28;20070;-68
2023/07/16 10:46:10;;;;;;;12.65;5.63;;;;;;;24.48;38.37;100975.44;5097860;28;20036;-69
2023/07/16 10:48:37;;;;;;;9.95;4.50;;;;;;;24.31;38.41;100967.78;5109414;28;20043;-70
2023/07/16 10:51:04;;;;;;;15.63;4.80;;;;;;;24.42;39.07;100969.44;5069705;28;20056;-75
2023/07/16 10:53:32;;;;;;;9.85;4.57;;;;;;;24.48;39.48;100967.00;5104382;28;20048;-69
2023/07/16 10:56:01;;;;;;;15.25;5.05;;;;;;;24.72;38.49;100963.44;5084527;28;20062;-69
2023/07/16 10:58:28;;;;;;;15.40;4.80;;;;;;;24.34;38.61;100959.34;5098383;28;20035;-70
2023/07/16 11:00:55;;;;;;;10.57;4.35;;;;;;;24.31;39.00;100967.78;5066464;28;20375;-70
2023/07/16 11:03:23;;;;;;;13.07;4.95;;;;;;;24.21;38.33;100969.41;5083391;27;20047;-71
2023/07/16 11:05:50;;;;;;;9.95;4.50;;;;;;;24.09;38.81;100966.97;5082379;28;20064;-70
2023/07/16 11:08:24;;;;;;;14.77;4.43;;;;;;;24.16;38.91;100963.38;5102420;28;20052;-70
2023/07/16 11:10:58;;;;;;;13.85;4.85;;;;;;;24.28;38.47;100962.97;5105087;28;20035;-71
2023/07/16 11:13:29;;;;;;;12.18;5.30;;;;;;;24.58;38.22;100963.41;5108786;28;20435;-70
2023/07/16 11:15:56;;;;;;;17.33;5.60;;;;;;;24.81;37.92;100957.41;5086466;28;20456;-68
2023/07/16 11:18:24;;;;;;;15.60;5.07;;;;;;;24.88;38.06;100955.34;5106166;27;20142;-68
2023/07/16 11:20:52;;;;;;;21.92;5.25;;;;;;;24.80;37.83;100965.03;5106818;27;20040;-68